sensor_id;sensor_type;location;lat;lon;timestamp;P1;durP1;ratioP1;P2;durP2;ratioP2
25107;SDS011;13090;53.422;7.670;2022-09-09T00:03:41;12.38;;;7.03;;
25107;SDS011;13090;53.422;7.670;2022-09-09T00:08:52;8.23;;;6.72;;
25107;SDS011;13090;53.422;7.670;2022-09-09T00:14:03;8.68;;;6.53;;
25107;SDS011;13090;53.422;7.670;2022-09-09T00:19:17;9.20;;;6.15;;
25107;SDS011;13090;53.422;7.670;2022-09-09T00:24:27;10.88;;;6.93;;
25107;SDS011;13090;53.422;7.670;2022-09-09T00:29:35;31.88;;;7.70;;
25107;SDS011;13090;53.422;7.670;2022-09-09T00:34:46;41.45;;;7.50;;
25107;SDS011;13090;53.422;7.670;2022-09-09T00:39:52;12.13;;;7.00;;
25107;SDS011;13090;53.422;7.670;2022-09-09T00:45:02;10.55;;;6.57;;
25107;SDS011;13090;53.422;7.670;2022-09-09T00:50:26;11.27;;;6.47;;
25107;SDS011;13090;53.422;7.670;2022-09-09T00:55:39;7.82;;;6.28;;
25107;SDS011;13090;53.422;7.670;2022-09-09T01:00:48;8.88;;;6.13;;
25107;SDS011;13090;53.422;7.670;2022-09-09T01:06:01;8.15;;;6.75;;
25107;SDS011;13090;53.422;7.670;2022-09-09T01:11:20;30.88;;;6.13;;
25107;SDS011;13090;53.422;7.670;2022-09-09T01:16:25;8.45;;;6.60;;
25107;SDS011;13090;53.422;7.670;2022-09-09T01:21:34;11.85;;;7.85;;
25107;SDS011;13090;53.422;7.670;2022-09-09T01:26:45;10.50;;;7.63;;
25107;SDS011;13090;53.422;7.670;2022-09-09T01:31:53;10.48;;;8.45;;
25107;SDS011;13090;53.422;7.670;2022-09-09T01:36:57;12.10;;;8.05;;
25107;SDS011;13090;53.422;7.670;2022-09-09T01:42:06;9.77;;;7.30;;
25107;SDS011;13090;53.422;7.670;2022-09-09T01:47:11;13.00;;;8.35;;
25107;SDS011;13090;53.422;7.670;2022-09-09T01:52:14;9.32;;;8.23;;
25107;SDS011;13090;53.422;7.670;2022-09-09T01:57:20;11.68;;;7.00;;
25107;SDS011;13090;53.422;7.670;2022-09-09T02:02:27;9.30;;;7.68;;
25107;SDS011;13090;53.422;7.670;2022-09-09T02:07:37;9.98;;;6.43;;
25107;SDS011;13090;53.422;7.670;2022-09-09T02:12:44;125.97;;;8.25;;
25107;SDS011;13090;53.422;7.670;2022-09-09T02:17:50;44.78;;;8.00;;
25107;SDS011;13090;53.422;7.670;2022-09-09T02:22:57;90.25;;;7.65;;
25107;SDS011;13090;53.422;7.670;2022-09-09T02:28:05;39.28;;;7.35;;
25107;SDS011;13090;53.422;7.670;2022-09-09T02:33:11;12.52;;;7.20;;
25107;SDS011;13090;53.422;7.670;2022-09-09T02:38:15;19.27;;;7.60;;
25107;SDS011;13090;53.422;7.670;2022-09-09T02:43:20;19.98;;;8.13;;
25107;SDS011;13090;53.422;7.670;2022-09-09T02:48:25;8.07;;;7.07;;
25107;SDS011;13090;53.422;7.670;2022-09-09T02:53:35;12.73;;;7.68;;
25107;SDS011;13090;53.422;7.670;2022-09-09T02:58:44;10.50;;;7.88;;
25107;SDS011;13090;53.422;7.670;2022-09-09T03:03:47;9.55;;;7.50;;
25107;SDS011;13090;53.422;7.670;2022-09-09T03:08:49;9.98;;;7.38;;
25107;SDS011;13090;53.422;7.670;2022-09-09T03:13:53;10.88;;;7.88;;
25107;SDS011;13090;53.422;7.670;2022-09-09T03:18:56;12.50;;;8.23;;
25107;SDS011;13090;53.422;7.670;2022-09-09T03:23:59;11.95;;;7.72;;
25107;SDS011;13090;53.422;7.670;2022-09-09T03:29:04;12.50;;;7.63;;
25107;SDS011;13090;53.422;7.670;2022-09-09T03:34:07;11.63;;;7.70;;
25107;SDS011;13090;53.422;7.670;2022-09-09T03:39:10;11.10;;;7.88;;
25107;SDS011;13090;53.422;7.670;2022-09-09T03:44:14;11.60;;;7.97;;
25107;SDS011;13090;53.422;7.670;2022-09-09T03:49:17;10.55;;;6.85;;
25107;SDS011;13090;53.422;7.670;2022-09-09T03:54:19;9.40;;;6.88;;
25107;SDS011;13090;53.422;7.670;2022-09-09T03:59:24;8.77;;;6.55;;
25107;SDS011;13090;53.422;7.670;2022-09-09T04:04:26;8.85;;;6.65;;
25107;SDS011;13090;53.422;7.670;2022-09-09T04:09:29;10.82;;;7.55;;
25107;SDS011;13090;53.422;7.670;2022-09-09T04:14:37;9.40;;;6.47;;
25107;SDS011;13090;53.422;7.670;2022-09-09T04:19:47;9.82;;;6.95;;
25107;SDS011;13090;53.422;7.670;2022-09-09T04:24:50;11.35;;;6.85;;
25107;SDS011;13090;53.422;7.670;2022-09-09T04:29:54;9.88;;;6.28;;
25107;SDS011;13090;53.422;7.670;2022-09-09T04:34:57;10.07;;;5.57;;
25107;SDS011;13090;53.422;7.670;2022-09-09T04:40:00;8.25;;;5.60;;
25107;SDS011;13090;53.422;7.670;2022-09-09T04:45:08;9.43;;;6.00;;
25107;SDS011;13090;53.422;7.670;2022-09-09T04:50:11;9.05;;;5.47;;
25107;SDS011;13090;53.422;7.670;2022-09-09T04:55:14;9.05;;;6.03;;
25107;SDS011;13090;53.422;7.670;2022-09-09T05:00:18;11.13;;;6.22;;
25107;SDS011;13090;53.422;7.670;2022-09-09T05:05:22;6.88;;;5.55;;
25107;SDS011;13090;53.422;7.670;2022-09-09T05:10:25;7.18;;;5.20;;
25107;SDS011;13090;53.422;7.670;2022-09-09T05:15:29;6.68;;;5.28;;
25107;SDS011;13090;53.422;7.670;2022-09-09T05:20:32;8.93;;;4.97;;
25107;SDS011;13090;53.422;7.670;2022-09-09T05:25:34;7.30;;;5.70;;
25107;SDS011;13090;53.422;7.670;2022-09-09T05:30:38;11.02;;;5.18;;
25107;SDS011;13090;53.422;7.670;2022-09-09T05:35:41;7.68;;;5.47;;
25107;SDS011;13090;53.422;7.670;2022-09-09T05:40:46;8.95;;;6.00;;
25107;SDS011;13090;53.422;7.670;2022-09-09T05:46:00;5.45;;;4.28;;
25107;SDS011;13090;53.422;7.670;2022-09-09T05:57:31;5.55;;;2.65;;
25107;SDS011;13090;53.422;7.670;2022-09-09T06:02:36;3.25;;;2.00;;
25107;SDS011;13090;53.422;7.670;2022-09-09T06:07:39;4.07;;;2.28;;
25107;SDS011;13090;53.422;7.670;2022-09-09T06:12:42;3.80;;;2.25;;
25107;SDS011;13090;53.422;7.670;2022-09-09T06:17:46;2.90;;;1.90;;
25107;SDS011;13090;53.422;7.670;2022-09-09T06:22:48;2.92;;;2.00;;
25107;SDS011;13090;53.422;7.670;2022-09-09T06:27:50;3.72;;;2.10;;
25107;SDS011;13090;53.422;7.670;2022-09-09T06:32:59;4.75;;;2.60;;
25107;SDS011;13090;53.422;7.670;2022-09-09T06:38:01;3.50;;;2.70;;
25107;SDS011;13090;53.422;7.670;2022-09-09T06:43:04;4.28;;;2.75;;
25107;SDS011;13090;53.422;7.670;2022-09-09T06:48:08;5.07;;;3.20;;
25107;SDS011;13090;53.422;7.670;2022-09-09T06:53:11;6.22;;;2.55;;
25107;SDS011;13090;53.422;7.670;2022-09-09T06:58:17;3.70;;;2.92;;
25107;SDS011;13090;53.422;7.670;2022-09-09T07:03:21;5.55;;;2.83;;
25107;SDS011;13090;53.422;7.670;2022-09-09T07:08:24;4.85;;;3.47;;
25107;SDS011;13090;53.422;7.670;2022-09-09T07:13:27;4.63;;;3.08;;
25107;SDS011;13090;53.422;7.670;2022-09-09T07:18:31;4.25;;;2.85;;
25107;SDS011;13090;53.422;7.670;2022-09-09T07:23:34;6.53;;;3.17;;
25107;SDS011;13090;53.422;7.670;2022-09-09T07:28:37;3.35;;;2.78;;
25107;SDS011;13090;53.422;7.670;2022-09-09T07:33:42;5.45;;;2.83;;
25107;SDS011;13090;53.422;7.670;2022-09-09T07:38:46;3.28;;;2.80;;
25107;SDS011;13090;53.422;7.670;2022-09-09T07:43:51;4.88;;;3.38;;
25107;SDS011;13090;53.422;7.670;2022-09-09T07:54:12;2.78;;;2.45;;
25107;SDS011;13090;53.422;7.670;2022-09-09T07:59:16;5.90;;;2.72;;
25107;SDS011;13090;53.422;7.670;2022-09-09T08:04:23;3.53;;;2.30;;
25107;SDS011;13090;53.422;7.670;2022-09-09T08:09:30;4.68;;;2.65;;
25107;SDS011;13090;53.422;7.670;2022-09-09T08:14:40;4.45;;;2.80;;
25107;SDS011;13090;53.422;7.670;2022-09-09T08:20:07;4.47;;;2.80;;
25107;SDS011;13090;53.422;7.670;2022-09-09T08:25:11;3.58;;;3.00;;
25107;SDS011;13090;53.422;7.670;2022-09-09T08:30:14;3.22;;;2.85;;
25107;SDS011;13090;53.422;7.670;2022-09-09T08:35:18;6.75;;;3.35;;
25107;SDS011;13090;53.422;7.670;2022-09-09T08:40:26;4.70;;;3.25;;
25107;SDS011;13090;53.422;7.670;2022-09-09T08:45:35;3.97;;;2.90;;
25107;SDS011;13090;53.422;7.670;2022-09-09T08:56:58;3.55;;;2.50;;
25107;SDS011;13090;53.422;7.670;2022-09-09T09:02:03;3.90;;;3.13;;
25107;SDS011;13090;53.422;7.670;2022-09-09T09:25:09;4.75;;;3.38;;
25107;SDS011;13090;53.422;7.670;2022-09-09T09:30:18;3.83;;;3.10;;
25107;SDS011;13090;53.422;7.670;2022-09-09T09:35:30;4.65;;;2.65;;
25107;SDS011;13090;53.422;7.670;2022-09-09T09:40:47;4.57;;;2.70;;
25107;SDS011;13090;53.422;7.670;2022-09-09T09:45:51;4.60;;;2.03;;
25107;SDS011;13090;53.422;7.670;2022-09-09T09:51:15;2.60;;;1.77;;
25107;SDS011;13090;53.422;7.670;2022-09-09T09:56:28;4.40;;;1.85;;
25107;SDS011;13090;53.422;7.670;2022-09-09T10:01:32;4.05;;;1.73;;
25107;SDS011;13090;53.422;7.670;2022-09-09T10:06:36;3.13;;;1.80;;
25107;SDS011;13090;53.422;7.670;2022-09-09T10:11:43;5.15;;;2.47;;
25107;SDS011;13090;53.422;7.670;2022-09-09T10:16:56;3.00;;;2.00;;
25107;SDS011;13090;53.422;7.670;2022-09-09T10:27:18;3.60;;;2.00;;
25107;SDS011;13090;53.422;7.670;2022-09-09T10:32:35;4.15;;;2.08;;
25107;SDS011;13090;53.422;7.670;2022-09-09T10:37:53;4.78;;;2.65;;
25107;SDS011;13090;53.422;7.670;2022-09-09T10:43:12;4.07;;;2.40;;
25107;SDS011;13090;53.422;7.670;2022-09-09T10:48:31;4.20;;;2.42;;
25107;SDS011;13090;53.422;7.670;2022-09-09T10:53:47;3.60;;;2.28;;
25107;SDS011;13090;53.422;7.670;2022-09-09T10:59:00;3.22;;;2.10;;
25107;SDS011;13090;53.422;7.670;2022-09-09T11:04:12;6.25;;;2.75;;
25107;SDS011;13090;53.422;7.670;2022-09-09T11:09:22;4.30;;;3.05;;
25107;SDS011;13090;53.422;7.670;2022-09-09T11:14:36;4.57;;;2.75;;
25107;SDS011;13090;53.422;7.670;2022-09-09T11:19:43;3.25;;;2.63;;
25107;SDS011;13090;53.422;7.670;2022-09-09T11:24:47;3.00;;;2.30;;
25107;SDS011;13090;53.422;7.670;2022-09-09T11:36:00;8.05;;;2.90;;
25107;SDS011;13090;53.422;7.670;2022-09-09T11:41:32;3.35;;;2.83;;
25107;SDS011;13090;53.422;7.670;2022-09-09T11:46:39;3.85;;;3.03;;
25107;SDS011;13090;53.422;7.670;2022-09-09T11:51:43;4.80;;;3.00;;
25107;SDS011;13090;53.422;7.670;2022-09-09T11:56:46;5.63;;;3.30;;
25107;SDS011;13090;53.422;7.670;2022-09-09T12:01:50;4.47;;;2.47;;
25107;SDS011;13090;53.422;7.670;2022-09-09T12:07:00;3.90;;;2.90;;
25107;SDS011;13090;53.422;7.670;2022-09-09T12:17:36;5.38;;;2.80;;
25107;SDS011;13090;53.422;7.670;2022-09-09T12:22:53;5.05;;;2.65;;
25107;SDS011;13090;53.422;7.670;2022-09-09T12:28:24;6.80;;;2.80;;
25107;SDS011;13090;53.422;7.670;2022-09-09T12:33:39;6.47;;;3.17;;
25107;SDS011;13090;53.422;7.670;2022-09-09T12:38:43;4.05;;;2.42;;
25107;SDS011;13090;53.422;7.670;2022-09-09T12:43:46;9.82;;;3.00;;
25107;SDS011;13090;53.422;7.670;2022-09-09T12:48:50;8.35;;;2.65;;
25107;SDS011;13090;53.422;7.670;2022-09-09T12:53:54;8.85;;;2.78;;
25107;SDS011;13090;53.422;7.670;2022-09-09T12:58:59;10.75;;;4.57;;
25107;SDS011;13090;53.422;7.670;2022-09-09T13:04:15;6.60;;;3.05;;
25107;SDS011;13090;53.422;7.670;2022-09-09T13:09:22;8.75;;;2.58;;
25107;SDS011;13090;53.422;7.670;2022-09-09T13:14:26;5.78;;;2.28;;
25107;SDS011;13090;53.422;7.670;2022-09-09T13:19:35;4.60;;;2.30;;
25107;SDS011;13090;53.422;7.670;2022-09-09T13:29:50;9.63;;;2.50;;
25107;SDS011;13090;53.422;7.670;2022-09-09T13:34:58;7.18;;;2.60;;
25107;SDS011;13090;53.422;7.670;2022-09-09T13:40:16;9.07;;;2.90;;
25107;SDS011;13090;53.422;7.670;2022-09-09T13:45:25;4.50;;;2.50;;
25107;SDS011;13090;53.422;7.670;2022-09-09T13:50:31;2.97;;;2.10;;
25107;SDS011;13090;53.422;7.670;2022-09-09T13:55:34;5.78;;;2.35;;
25107;SDS011;13090;53.422;7.670;2022-09-09T14:00:39;4.20;;;2.42;;
25107;SDS011;13090;53.422;7.670;2022-09-09T14:05:45;5.25;;;2.30;;
25107;SDS011;13090;53.422;7.670;2022-09-09T14:10:49;5.53;;;2.23;;
25107;SDS011;13090;53.422;7.670;2022-09-09T14:15:51;5.93;;;1.70;;
25107;SDS011;13090;53.422;7.670;2022-09-09T14:20:56;4.43;;;1.80;;
25107;SDS011;13090;53.422;7.670;2022-09-09T14:25:59;3.50;;;2.10;;
25107;SDS011;13090;53.422;7.670;2022-09-09T14:31:02;4.30;;;1.98;;
25107;SDS011;13090;53.422;7.670;2022-09-09T14:36:08;4.28;;;1.80;;
25107;SDS011;13090;53.422;7.670;2022-09-09T14:41:12;7.00;;;2.47;;
25107;SDS011;13090;53.422;7.670;2022-09-09T14:46:18;1.98;;;1.80;;
25107;SDS011;13090;53.422;7.670;2022-09-09T14:51:24;2.60;;;1.90;;
25107;SDS011;13090;53.422;7.670;2022-09-09T14:56:28;4.45;;;2.17;;
25107;SDS011;13090;53.422;7.670;2022-09-09T15:01:33;4.10;;;2.33;;
25107;SDS011;13090;53.422;7.670;2022-09-09T15:06:37;6.18;;;3.40;;
25107;SDS011;13090;53.422;7.670;2022-09-09T15:11:40;5.57;;;2.85;;
25107;SDS011;13090;53.422;7.670;2022-09-09T15:16:43;4.90;;;2.78;;
25107;SDS011;13090;53.422;7.670;2022-09-09T15:21:47;2.88;;;2.50;;
25107;SDS011;13090;53.422;7.670;2022-09-09T15:26:50;5.00;;;2.83;;
25107;SDS011;13090;53.422;7.670;2022-09-09T15:31:53;2.53;;;2.30;;
25107;SDS011;13090;53.422;7.670;2022-09-09T15:36:58;3.25;;;1.92;;
25107;SDS011;13090;53.422;7.670;2022-09-09T15:42:03;2.72;;;1.02;;
25107;SDS011;13090;53.422;7.670;2022-09-09T15:47:07;3.33;;;1.10;;
25107;SDS011;13090;53.422;7.670;2022-09-09T15:52:15;2.88;;;1.05;;
25107;SDS011;13090;53.422;7.670;2022-09-09T15:57:23;1.42;;;1.17;;
25107;SDS011;13090;53.422;7.670;2022-09-09T16:02:31;6.03;;;3.95;;
25107;SDS011;13090;53.422;7.670;2022-09-09T16:07:46;5.03;;;2.45;;
25107;SDS011;13090;53.422;7.670;2022-09-09T16:12:53;9.00;;;5.18;;
25107;SDS011;13090;53.422;7.670;2022-09-09T16:17:59;4.05;;;2.92;;
25107;SDS011;13090;53.422;7.670;2022-09-09T16:23:05;3.67;;;3.33;;
25107;SDS011;13090;53.422;7.670;2022-09-09T16:33:14;4.47;;;3.53;;
25107;SDS011;13090;53.422;7.670;2022-09-09T16:38:26;6.70;;;4.05;;
25107;SDS011;13090;53.422;7.670;2022-09-09T16:43:34;4.82;;;2.88;;
25107;SDS011;13090;53.422;7.670;2022-09-09T16:48:43;5.45;;;3.40;;
25107;SDS011;13090;53.422;7.670;2022-09-09T16:53:55;6.03;;;3.55;;
25107;SDS011;13090;53.422;7.670;2022-09-09T16:59:02;7.18;;;4.30;;
25107;SDS011;13090;53.422;7.670;2022-09-09T17:04:08;5.60;;;3.97;;
25107;SDS011;13090;53.422;7.670;2022-09-09T17:09:16;6.20;;;4.32;;
25107;SDS011;13090;53.422;7.670;2022-09-09T17:14:28;6.65;;;3.90;;
25107;SDS011;13090;53.422;7.670;2022-09-09T17:19:37;5.38;;;4.32;;
25107;SDS011;13090;53.422;7.670;2022-09-09T17:30:16;4.43;;;3.58;;
25107;SDS011;13090;53.422;7.670;2022-09-09T17:38:35;6.97;;;3.72;;
25107;SDS011;13090;53.422;7.670;2022-09-09T17:43:39;9.05;;;4.30;;
25107;SDS011;13090;53.422;7.670;2022-09-09T17:48:43;5.60;;;3.63;;
25107;SDS011;13090;53.422;7.670;2022-09-09T17:53:48;5.00;;;3.83;;
25107;SDS011;13090;53.422;7.670;2022-09-09T17:58:52;5.95;;;3.50;;
25107;SDS011;13090;53.422;7.670;2022-09-09T18:03:55;6.13;;;3.75;;
25107;SDS011;13090;53.422;7.670;2022-09-09T18:09:03;5.22;;;3.63;;
25107;SDS011;13090;53.422;7.670;2022-09-09T18:14:10;6.35;;;4.18;;
25107;SDS011;13090;53.422;7.670;2022-09-09T18:19:18;6.18;;;3.97;;
25107;SDS011;13090;53.422;7.670;2022-09-09T18:30:37;4.43;;;3.95;;
25107;SDS011;13090;53.422;7.670;2022-09-09T18:35:40;4.72;;;3.47;;
25107;SDS011;13090;53.422;7.670;2022-09-09T18:40:43;4.80;;;4.28;;
25107;SDS011;13090;53.422;7.670;2022-09-09T18:45:48;4.28;;;3.63;;
25107;SDS011;13090;53.422;7.670;2022-09-09T18:50:52;4.95;;;3.60;;
25107;SDS011;13090;53.422;7.670;2022-09-09T18:55:58;6.30;;;3.80;;
25107;SDS011;13090;53.422;7.670;2022-09-09T19:01:06;5.88;;;3.70;;
25107;SDS011;13090;53.422;7.670;2022-09-09T19:06:12;4.40;;;3.95;;
25107;SDS011;13090;53.422;7.670;2022-09-09T19:11:17;5.03;;;3.65;;
25107;SDS011;13090;53.422;7.670;2022-09-09T19:16:23;5.80;;;3.75;;
25107;SDS011;13090;53.422;7.670;2022-09-09T19:21:33;6.47;;;4.28;;
25107;SDS011;13090;53.422;7.670;2022-09-09T19:26:39;5.47;;;3.92;;
25107;SDS011;13090;53.422;7.670;2022-09-09T19:31:45;4.85;;;3.75;;
25107;SDS011;13090;53.422;7.670;2022-09-09T19:37:08;5.32;;;3.88;;
25107;SDS011;13090;53.422;7.670;2022-09-09T19:42:14;5.13;;;4.15;;
25107;SDS011;13090;53.422;7.670;2022-09-09T19:47:20;5.47;;;4.32;;
25107;SDS011;13090;53.422;7.670;2022-09-09T19:52:22;8.05;;;4.35;;
25107;SDS011;13090;53.422;7.670;2022-09-09T19:57:26;5.88;;;4.85;;
25107;SDS011;13090;53.422;7.670;2022-09-09T20:02:31;7.15;;;4.85;;
25107;SDS011;13090;53.422;7.670;2022-09-09T20:07:34;9.07;;;5.70;;
25107;SDS011;13090;53.422;7.670;2022-09-09T20:12:37;6.63;;;5.35;;
25107;SDS011;13090;53.422;7.670;2022-09-09T20:17:42;6.18;;;5.28;;
25107;SDS011;13090;53.422;7.670;2022-09-09T20:22:48;7.60;;;4.93;;
25107;SDS011;13090;53.422;7.670;2022-09-09T20:33:02;7.20;;;5.05;;
25107;SDS011;13090;53.422;7.670;2022-09-09T20:38:05;5.75;;;5.05;;
25107;SDS011;13090;53.422;7.670;2022-09-09T20:43:09;6.35;;;5.20;;
25107;SDS011;13090;53.422;7.670;2022-09-09T20:48:15;9.27;;;5.78;;
25107;SDS011;13090;53.422;7.670;2022-09-09T20:53:18;10.55;;;5.55;;
25107;SDS011;13090;53.422;7.670;2022-09-09T20:58:21;11.95;;;6.35;;
25107;SDS011;13090;53.422;7.670;2022-09-09T21:03:26;9.50;;;6.65;;
25107;SDS011;13090;53.422;7.670;2022-09-09T21:08:29;5.80;;;5.30;;
25107;SDS011;13090;53.422;7.670;2022-09-09T21:13:33;5.93;;;5.32;;
25107;SDS011;13090;53.422;7.670;2022-09-09T21:18:41;7.38;;;5.95;;
25107;SDS011;13090;53.422;7.670;2022-09-09T21:23:43;6.80;;;5.75;;
25107;SDS011;13090;53.422;7.670;2022-09-09T21:28:47;8.55;;;5.38;;
25107;SDS011;13090;53.422;7.670;2022-09-09T21:33:54;5.78;;;5.07;;
25107;SDS011;13090;53.422;7.670;2022-09-09T21:38:57;5.25;;;4.75;;
25107;SDS011;13090;53.422;7.670;2022-09-09T21:44:00;6.35;;;4.95;;
25107;SDS011;13090;53.422;7.670;2022-09-09T21:49:05;5.82;;;4.93;;
25107;SDS011;13090;53.422;7.670;2022-09-09T21:54:08;7.55;;;5.03;;
25107;SDS011;13090;53.422;7.670;2022-09-09T21:59:10;6.88;;;6.00;;
25107;SDS011;13090;53.422;7.670;2022-09-09T22:04:14;5.15;;;4.65;;
25107;SDS011;13090;53.422;7.670;2022-09-09T22:09:17;5.40;;;4.90;;
25107;SDS011;13090;53.422;7.670;2022-09-09T22:14:21;5.65;;;5.03;;
25107;SDS011;13090;53.422;7.670;2022-09-09T22:19:25;7.65;;;4.95;;
25107;SDS011;13090;53.422;7.670;2022-09-09T22:24:28;5.70;;;5.00;;
25107;SDS011;13090;53.422;7.670;2022-09-09T22:29:31;6.32;;;5.05;;
25107;SDS011;13090;53.422;7.670;2022-09-09T22:34:35;6.68;;;5.22;;
25107;SDS011;13090;53.422;7.670;2022-09-09T22:39:37;6.15;;;5.25;;
25107;SDS011;13090;53.422;7.670;2022-09-09T22:44:40;6.68;;;5.97;;
25107;SDS011;13090;53.422;7.670;2022-09-09T22:49:44;6.32;;;5.72;;
25107;SDS011;13090;53.422;7.670;2022-09-09T22:54:47;7.07;;;5.85;;
25107;SDS011;13090;53.422;7.670;2022-09-09T22:59:51;7.07;;;5.68;;
25107;SDS011;13090;53.422;7.670;2022-09-09T23:04:55;7.68;;;5.63;;
25107;SDS011;13090;53.422;7.670;2022-09-09T23:09:57;16.63;;;5.28;;
25107;SDS011;13090;53.422;7.670;2022-09-09T23:15:00;7.82;;;5.63;;
25107;SDS011;13090;53.422;7.670;2022-09-09T23:20:05;7.38;;;5.85;;
25107;SDS011;13090;53.422;7.670;2022-09-09T23:25:09;6.72;;;6.03;;
25107;SDS011;13090;53.422;7.670;2022-09-09T23:30:12;6.47;;;5.88;;
25107;SDS011;13090;53.422;7.670;2022-09-09T23:35:17;7.05;;;6.35;;
25107;SDS011;13090;53.422;7.670;2022-09-09T23:40:20;7.00;;;5.97;;
25107;SDS011;13090;53.422;7.670;2022-09-09T23:45:23;7.28;;;6.38;;
25107;SDS011;13090;53.422;7.670;2022-09-09T23:50:27;9.68;;;6.50;;
25107;SDS011;13090;53.422;7.670;2022-09-09T23:55:30;9.50;;;7.18;;
